Time;durP1;ratioP1;P1;durP2;ratioP2;P2;SDS_P1;SDS_P2;PMS_P1;PMS_P2;Temp;Humidity;BMP_temperature;BMP_pressure;BME280_temperature;BME280_humidity;BME280_pressure;Samples;Min_cycle;Max_cycle;Signal;HPM_P1;HPM_P2
2023/03/29 00:00:19;;;;;;;4.97;2.88;;;8.40;99.90;;;;;;4926517;29;20032;-72
2023/03/29 00:02:47;;;;;;;7.68;3.30;;;8.50;99.90;;;;;;4933427;29;20055;-71
2023/03/29 00:05:14;;;;;;;5.50;3.20;;;8.50;99.90;;;;;;4931507;29;20046;-71
2023/03/29 00:07:41;;;;;;;7.00;2.95;;;8.60;99.90;;;;;;4929823;29;20046;-72
2023/03/29 00:10:09;;;;;;;5.32;3.38;;;8.60;99.90;;;;;;4926948;29;20390;-72
2023/03/29 00:12:36;;;;;;;4.97;3.35;;;8.70;99.90;;;;;;4921078;29;20031;-71
2023/03/29 00:15:03;;;;;;;6.90;3.75;;;8.70;99.90;;;;;;4927461;29;20138;-71
2023/03/29 00:17:29;;;;;;;5.72;3.10;;;8.80;99.90;;;;;;4934658;29;20544;-71
2023/03/29 00:19:55;;;;;;;7.25;3.05;;;8.80;99.90;;;;;;4927787;29;20037;-71
2023/03/29 00:22:20;;;;;;;5.40;3.33;;;8.80;99.90;;;;;;4929339;29;20030;-71
2023/03/29 00:24:47;;;;;;;6.13;3.40;;;8.80;99.90;;;;;;4931486;29;20400;-71
2023/03/29 00:27:15;;;;;;;7.00;3.20;;;8.90;99.90;;;;;;4921786;29;20020;-72
2023/03/29 00:29:41;;;;;;;5.18;2.95;;;8.80;99.90;;;;;;4928306;29;20024;-71
2023/03/29 00:32:07;;;;;;;6.38;2.83;;;8.80;99.90;;;;;;4932372;29;20028;-71
2023/03/29 00:34:34;;;;;;;4.78;2.63;;;8.90;99.90;;;;;;4927312;29;20019;-71
2023/03/29 00:37:01;;;;;;;4.68;3.15;;;8.90;99.90;;;;;;4932279;29;20063;-71
2023/03/29 00:39:27;;;;;;;4.03;2.55;;;8.80;99.90;;;;;;4925505;29;20068;-72
2023/03/29 00:41:53;;;;;;;5.13;2.53;;;8.80;99.90;;;;;;4922139;29;20066;-72
2023/03/29 00:44:56;;;;;;;3.92;2.58;;;8.80;99.90;;;;;;4934186;29;20037;-71
2023/03/29 00:47:31;;;;;;;;;;;8.90;99.90;;;;;;4930382;29;20477;-71
2023/03/29 00:50:03;;;;;;;5.30;2.40;;;8.80;99.90;;;;;;4928125;29;19911;-72
2023/03/29 00:52:31;;;;;;;4.97;2.45;;;8.90;99.90;;;;;;4929724;29;20036;-71
2023/03/29 00:55:01;;;;;;;4.10;2.10;;;8.90;99.90;;;;;;4923331;29;20035;-72
2023/03/29 00:57:28;;;;;;;6.53;2.38;;;8.90;99.90;;;;;;4932005;29;20507;-73
2023/03/29 00:59:55;;;;;;;4.15;2.45;;;8.90;99.90;;;;;;4933092;29;20063;-72
2023/03/29 01:02:26;;;;;;;3.58;2.15;;;8.90;99.90;;;;;;4927657;29;20032;-72
2023/03/29 01:05:04;;;;;;;6.50;2.40;;;8.90;99.90;;;;;;4926956;29;20031;-72
2023/03/29 01:07:52;;;;;;;3.72;2.13;;;9.00;99.90;;;;;;4933974;29;20498;-72
2023/03/29 01:10:25;;;;;;;4.78;2.47;;;8.90;99.90;;;;;;4928012;29;20088;-71
2023/03/29 01:12:55;;;;;;;;;;;8.90;99.90;;;;;;4935338;29;20223;-71
2023/03/29 01:15:27;;;;;;;2.15;1.90;;;8.80;99.90;;;;;;4930032;29;20148;-72
2023/03/29 01:17:54;;;;;;;3.97;1.75;;;8.90;99.90;;;;;;4932726;29;20589;-71
2023/03/29 01:20:28;;;;;;;7.15;1.98;;;8.90;99.90;;;;;;4931142;29;20035;-71
2023/03/29 01:23:01;;;;;;;5.55;2.40;;;9.00;99.90;;;;;;4932181;29;20031;-71
2023/03/29 01:26:04;;;;;;;6.60;2.10;;;8.90;99.90;;;;;;4933540;29;20040;-71
2023/03/29 01:28:39;;;;;;;2.55;1.80;;;9.00;99.90;;;;;;4926507;29;20358;-71
2023/03/29 01:31:17;;;;;;;2.72;2.00;;;9.00;99.90;;;;;;4932122;29;20119;-71
2023/03/29 01:33:52;;;;;;;3.55;2.17;;;9.00;99.90;;;;;;4928015;29;20024;-71
2023/03/29 01:36:26;;;;;;;4.65;2.10;;;9.00;99.90;;;;;;4928055;29;20110;-72
2023/03/29 01:39:03;;;;;;;6.72;2.58;;;9.00;99.90;;;;;;4928763;29;20043;-71
2023/03/29 01:42:07;;;;;;;5.95;2.22;;;9.00;99.90;;;;;;4929313;29;20079;-73
2023/03/29 01:44:46;;;;;;;4.43;1.95;;;9.10;99.90;;;;;;4926680;29;20024;-71
2023/03/29 01:47:14;;;;;;;2.90;1.80;;;9.10;99.90;;;;;;4931646;29;20425;-72
2023/03/29 01:49:51;;;;;;;2.47;1.80;;;9.10;99.90;;;;;;4927141;29;20035;-71
2023/03/29 01:52:22;;;;;;;3.72;2.00;;;9.10;99.90;;;;;;4931143;29;20020;-71
2023/03/29 01:54:57;;;;;;;3.97;2.67;;;9.10;99.90;;;;;;4932475;29;20051;-72
2023/03/29 01:57:24;;;;;;;7.43;2.08;;;9.00;99.90;;;;;;4927659;29;20537;-72
2023/03/29 01:59:53;;;;;;;2.35;1.90;;;9.00;99.90;;;;;;4934840;29;20043;-71
2023/03/29 02:02:22;;;;;;;3.70;1.90;;;9.00;99.90;;;;;;4930420;29;20460;-72
2023/03/29 02:04:52;;;;;;;5.90;2.30;;;9.00;99.90;;;;;;4934642;29;20079;-72
2023/03/29 02:07:22;;;;;;;5.55;2.70;;;9.10;99.90;;;;;;4932693;29;20028;-71
2023/03/29 02:09:51;;;;;;;4.30;2.50;;;9.10;99.90;;;;;;4930837;29;20063;-72
2023/03/29 02:12:19;;;;;;;5.03;2.70;;;9.00;99.90;;;;;;4932174;29;20015;-71
2023/03/29 02:14:45;;;;;;;5.95;2.38;;;9.10;99.90;;;;;;4939123;29;20047;-71
2023/03/29 02:17:21;;;;;;;2.92;2.20;;;9.10;99.90;;;;;;4934357;29;20385;-72
2023/03/29 02:19:51;;;;;;;4.78;3.13;;;9.00;99.90;;;;;;4933240;29;20047;-71
2023/03/29 02:22:23;;;;;;;4.72;2.47;;;9.10;99.90;;;;;;4925898;29;20474;-72
2023/03/29 02:24:50;;;;;;;5.80;3.08;;;9.10;99.90;;;;;;4928812;29;20119;-73
2023/03/29 02:27:16;;;;;;;5.93;2.63;;;9.10;99.90;;;;;;4927444;29;20377;-71
2023/03/29 02:29:42;;;;;;;3.30;3.00;;;9.10;99.90;;;;;;4927159;29;20033;-72
2023/03/29 02:32:16;;;;;;;2.95;2.50;;;9.20;99.90;;;;;;4930174;29;20415;-71
2023/03/29 02:34:49;;;;;;;4.95;2.42;;;9.20;99.90;;;;;;4935566;29;20451;-71
2023/03/29 02:37:18;;;;;;;4.57;2.53;;;9.20;99.90;;;;;;4927598;29;20463;-71
2023/03/29 02:39:48;;;;;;;5.40;2.95;;;9.20;99.90;;;;;;4927966;29;20099;-72
2023/03/29 02:42:19;;;;;;;3.72;2.33;;;9.20;99.90;;;;;;4929009;29;20477;-72
2023/03/29 02:44:46;;;;;;;4.72;2.65;;;9.20;99.90;;;;;;4924820;29;20048;-71
2023/03/29 02:47:16;;;;;;;4.80;2.58;;;9.20;99.90;;;;;;4930783;29;20381;-72
2023/03/29 02:49:42;;;;;;;3.47;2.03;;;9.30;99.90;;;;;;4935936;28;20091;-71
2023/03/29 02:52:15;;;;;;;4.15;2.00;;;9.30;99.90;;;;;;4930880;29;20043;-72
2023/03/29 02:54:44;;;;;;;3.75;2.33;;;9.20;99.90;;;;;;4928179;29;20082;-72
2023/03/29 02:57:11;;;;;;;3.60;2.47;;;9.20;99.90;;;;;;4927615;29;20028;-71
2023/03/29 02:59:37;;;;;;;4.35;2.58;;;9.30;99.90;;;;;;4934555;29;20119;-71
2023/03/29 03:02:04;;;;;;;3.83;2.75;;;9.20;99.90;;;;;;4932087;29;20079;-71
2023/03/29 03:04:30;;;;;;;5.20;2.10;;;9.20;99.90;;;;;;4933431;29;20425;-71
2023/03/29 03:06:56;;;;;;;4.72;2.22;;;9.20;99.90;;;;;;4928542;29;20031;-71
2023/03/29 03:09:23;;;;;;;4.55;2.28;;;9.20;99.90;;;;;;4932254;29;20087;-71
2023/03/29 03:11:48;;;;;;;3.70;2.30;;;9.20;99.90;;;;;;4931642;29;20083;-71
2023/03/29 03:14:15;;;;;;;5.78;3.00;;;9.30;99.90;;;;;;4931821;29;20031;-72
2023/03/29 03:16:41;;;;;;;4.53;2.78;;;9.20;99.90;;;;;;4925851;29;20023;-71
2023/03/29 03:19:09;;;;;;;3.50;2.40;;;9.30;99.90;;;;;;4932001;29;20027;-71
2023/03/29 03:21:36;;;;;;;10.07;2.40;;;9.30;99.90;;;;;;4924846;29;20115;-71
2023/03/29 03:24:03;;;;;;;5.68;1.88;;;9.30;99.90;;;;;;4928584;29;20016;-71
2023/03/29 03:26:31;;;;;;;5.15;2.20;;;9.30;99.90;;;;;;4930628;29;20119;-72
2023/03/29 03:28:57;;;;;;;3.58;2.00;;;9.40;99.90;;;;;;4933910;29;20095;-71
2023/03/29 03:31:23;;;;;;;3.60;1.98;;;9.40;99.90;;;;;;4927328;29;20107;-72
2023/03/29 03:33:48;;;;;;;4.32;2.72;;;9.40;99.90;;;;;;4929144;29;20438;-71
2023/03/29 03:36:14;;;;;;;4.28;2.33;;;9.40;99.90;;;;;;4935037;29;20024;-72
2023/03/29 03:38:40;;;;;;;3.70;1.83;;;9.40;99.90;;;;;;4931225;29;20079;-71
2023/03/29 03:41:06;;;;;;;5.22;2.55;;;9.40;99.90;;;;;;4927384;29;20500;-72
2023/03/29 03:43:32;;;;;;;5.05;2.25;;;9.40;99.90;;;;;;4929400;29;20028;-71
2023/03/29 03:45:58;;;;;;;8.38;2.40;;;9.40;99.90;;;;;;4934235;29;20015;-71
2023/03/29 03:48:24;;;;;;;3.80;2.22;;;9.40;99.90;;;;;;4933702;29;20034;-72
2023/03/29 03:50:57;;;;;;;4.63;2.03;;;9.40;99.90;;;;;;4926031;29;20024;-72
2023/03/29 03:53:25;;;;;;;3.45;2.10;;;9.40;99.90;;;;;;4931310;29;20028;-71
2023/03/29 03:55:53;;;;;;;6.10;2.30;;;9.50;99.90;;;;;;4923298;29;20024;-71
2023/03/29 03:58:19;;;;;;;5.82;2.65;;;9.50;99.90;;;;;;4925583;29;20087;-72
2023/03/29 04:00:49;;;;;;;3.83;2.42;;;9.50;99.90;;;;;;4931164;28;20036;-71
2023/03/29 04:03:16;;;;;;;4.50;2.22;;;9.50;99.90;;;;;;4931247;29;20103;-72
2023/03/29 04:05:44;;;;;;;4.25;2.53;;;9.50;99.90;;;;;;4934210;29;20119;-72
2023/03/29 04:08:11;;;;;;;3.33;2.20;;;9.50;99.90;;;;;;4926380;29;20476;-72
2023/03/29 04:10:37;;;;;;;5.45;2.30;;;9.60;99.90;;;;;;4932026;29;20031;-71
2023/03/29 04:13:06;;;;;;;5.30;2.30;;;9.50;99.90;;;;;;4932794;29;20446;-71
2023/03/29 04:15:33;;;;;;;3.25;2.47;;;9.50;99.90;;;;;;4937241;29;20114;-72
2023/03/29 04:17:59;;;;;;;4.05;2.13;;;9.50;99.90;;;;;;4931522;29;20031;-71
2023/03/29 04:20:26;;;;;;;4.60;2.20;;;9.50;99.90;;;;;;4934105;29;20042;-72
2023/03/29 04:22:52;;;;;;;3.72;2.55;;;9.50;99.90;;;;;;4925679;29;20040;-71
2023/03/29 04:25:20;;;;;;;6.10;2.67;;;9.50;99.90;;;;;;4925506;29;20040;-71
2023/03/29 04:27:46;;;;;;;4.78;2.60;;;9.50;99.90;;;;;;4930631;28;20096;-71
2023/03/29 04:30:12;;;;;;;5.20;2.72;;;9.50;99.90;;;;;;4925449;29;20035;-71
2023/03/29 04:32:38;;;;;;;6.22;2.40;;;9.60;99.90;;;;;;4929767;29;20022;-71
2023/03/29 04:35:04;;;;;;;4.03;2.33;;;9.60;99.90;;;;;;4934558;29;20551;-71
2023/03/29 04:37:31;;;;;;;9.68;3.08;;;9.60;99.90;;;;;;4928355;29;20027;-72
2023/03/29 04:39:59;;;;;;;6.55;2.70;;;9.60;99.90;;;;;;4932204;29;20114;-72
2023/03/29 04:42:26;;;;;;;4.85;2.65;;;9.60;99.90;;;;;;4936918;29;20020;-71
2023/03/29 04:44:52;;;;;;;3.28;2.13;;;9.60;99.90;;;;;;4938199;29;20027;-71
2023/03/29 04:47:18;;;;;;;7.15;2.53;;;9.70;99.90;;;;;;4931280;29;20021;-72
2023/03/29 04:49:44;;;;;;;4.93;2.63;;;9.70;99.90;;;;;;4928576;29;20041;-72
2023/03/29 04:52:10;;;;;;;8.68;2.80;;;9.60;99.90;;;;;;4932568;29;20039;-72
2023/03/29 04:54:36;;;;;;;5.95;2.90;;;9.70;99.90;;;;;;4930443;29;20027;-71
2023/03/29 04:57:06;;;;;;;6.25;2.53;;;9.60;99.90;;;;;;4929745;29;20031;-71
2023/03/29 04:59:32;;;;;;;9.57;2.55;;;9.70;99.90;;;;;;4933761;29;20031;-71
2023/03/29 05:01:59;;;;;;;6.72;2.40;;;9.60;99.90;;;;;;4933217;29;20085;-72
2023/03/29 05:04:27;;;;;;;5.60;2.90;;;9.60;99.90;;;;;;4928959;29;20024;-72
2023/03/29 05:06:53;;;;;;;8.95;2.47;;;9.70;99.90;;;;;;4932154;29;20071;-71
2023/03/29 05:09:18;;;;;;;5.65;2.92;;;9.70;99.90;;;;;;4929771;29;20079;-71
2023/03/29 05:11:44;;;;;;;5.03;2.55;;;9.70;99.90;;;;;;4933153;29;20106;-71
2023/03/29 05:14:10;;;;;;;8.15;2.60;;;9.70;99.90;;;;;;4926471;29;20039;-73
2023/03/29 05:16:36;;;;;;;3.28;2.30;;;9.70;99.90;;;;;;4930798;29;20056;-71
2023/03/29 05:19:02;;;;;;;6.65;2.63;;;9.70;99.90;;;;;;4938707;29;20111;-72
2023/03/29 05:21:28;;;;;;;6.45;2.60;;;9.70;99.90;;;;;;4933169;29;20537;-71
2023/03/29 05:23:54;;;;;;;6.78;2.67;;;9.70;99.90;;;;;;4935679;29;20392;-71
2023/03/29 05:26:21;;;;;;;7.00;2.60;;;9.70;99.90;;;;;;4930796;29;20032;-71
2023/03/29 05:28:50;;;;;;;8.60;3.10;;;9.60;99.90;;;;;;4933854;29;20024;-71
2023/03/29 05:31:16;;;;;;;6.50;3.05;;;9.70;99.90;;;;;;4926348;29;20028;-71
2023/03/29 05:33:42;;;;;;;5.13;2.92;;;9.70;99.90;;;;;;4934190;29;20480;-71
2023/03/29 05:36:12;;;;;;;5.50;3.25;;;9.70;99.90;;;;;;4930336;29;20385;-72
2023/03/29 05:38:39;;;;;;;5.10;3.08;;;9.70;99.90;;;;;;4933267;29;20402;-72
2023/03/29 05:41:05;;;;;;;4.35;2.70;;;9.80;99.90;;;;;;4925832;29;20036;-71
2023/03/29 05:43:31;;;;;;;8.23;3.38;;;9.80;99.90;;;;;;4928887;29;20455;-74
2023/03/29 05:45:57;;;;;;;4.40;2.58;;;9.80;99.90;;;;;;4931404;29;20024;-73
2023/03/29 05:48:24;;;;;;;7.60;3.05;;;9.90;99.90;;;;;;4946697;28;20027;-73
2023/03/29 05:50:52;;;;;;;8.93;3.38;;;9.90;99.90;;;;;;4927217;29;20036;-73
2023/03/29 05:53:18;;;;;;;3.80;2.47;;;9.80;99.90;;;;;;4926908;29;20119;-73
2023/03/29 05:55:45;;;;;;;4.78;3.20;;;9.90;99.90;;;;;;4939863;29;20908;-72
2023/03/29 05:58:11;;;;;;;8.32;4.25;;;9.90;99.90;;;;;;4930628;29;20500;-72
2023/03/29 06:00:39;;;;;;;11.90;6.15;;;9.90;99.90;;;;;;4928916;29;20045;-73
2023/03/29 06:03:06;;;;;;;6.40;3.40;;;10.00;99.90;;;;;;4927234;29;20027;-73
2023/03/29 06:05:33;;;;;;;4.47;3.13;;;10.00;99.90;;;;;;4925486;29;20036;-74
2023/03/29 06:08:02;;;;;;;6.97;3.45;;;10.10;99.90;;;;;;4929739;29;20115;-73
2023/03/29 06:10:28;;;;;;;7.25;3.13;;;10.10;99.90;;;;;;4926624;29;20103;-73
2023/03/29 06:12:54;;;;;;;10.05;3.65;;;10.10;99.90;;;;;;4933369;29;20387;-74
2023/03/29 06:15:20;;;;;;;7.30;3.75;;;10.10;99.90;;;;;;4932274;29;20032;-73
2023/03/29 06:17:46;;;;;;;7.68;3.97;;;10.10;99.90;;;;;;4930001;28;20477;-74
2023/03/29 06:20:13;;;;;;;7.30;3.58;;;10.20;99.90;;;;;;4928685;29;20095;-71
2023/03/29 06:22:40;;;;;;;8.07;4.88;;;10.20;99.90;;;;;;4934803;29;20070;-71
2023/03/29 06:25:11;;;;;;;9.30;4.00;;;10.20;99.90;;;;;;4931916;29;20032;-71
2023/03/29 06:27:36;;;;;;;11.35;4.32;;;10.20;99.90;;;;;;4936165;29;20020;-72
2023/03/29 06:30:03;;;;;;;12.90;3.85;;;10.20;99.90;;;;;;4927093;29;20503;-72
2023/03/29 06:32:29;;;;;;;8.13;4.03;;;10.20;99.90;;;;;;4930234;29;20111;-75
2023/03/29 06:34:55;;;;;;;6.35;3.80;;;10.20;99.90;;;;;;4928782;29;20449;-74
2023/03/29 06:37:22;;;;;;;7.78;3.40;;;10.20;99.90;;;;;;4931756;29;20028;-74
2023/03/29 06:39:51;;;;;;;6.35;3.50;;;10.30;99.90;;;;;;4926815;28;20087;-74
2023/03/29 06:42:18;;;;;;;8.93;3.88;;;10.30;99.90;;;;;;4926285;29;20024;-76
2023/03/29 06:44:45;;;;;;;8.23;3.40;;;10.40;99.90;;;;;;4934763;29;20043;-75
2023/03/29 06:47:12;;;;;;;7.70;3.50;;;10.50;99.90;;;;;;4928366;29;20027;-76
2023/03/29 06:49:38;;;;;;;8.02;4.00;;;10.50;99.90;;;;;;4922051;29;20042;-76
2023/03/29 06:52:04;;;;;;;9.35;3.15;;;10.60;99.90;;;;;;4933953;29;20015;-76
2023/03/29 06:54:30;;;;;;;5.32;3.30;;;10.70;99.90;;;;;;4930802;29;20036;-76
2023/03/29 06:56:56;;;;;;;8.63;3.42;;;10.70;99.90;;;;;;4930676;29;20012;-75
2023/03/29 06:59:22;;;;;;;7.20;4.20;;;10.70;99.90;;;;;;4932862;29;20114;-75
2023/03/29 07:01:48;;;;;;;6.68;3.60;;;10.70;99.90;;;;;;4932530;29;20576;-76
2023/03/29 07:04:14;;;;;;;7.25;4.22;;;10.70;99.90;;;;;;4935992;29;20552;-76
2023/03/29 07:06:47;;;;;;;8.18;3.40;;;10.80;99.90;;;;;;4935676;29;20038;-75
2023/03/29 07:09:17;;;;;;;10.70;3.53;;;10.80;99.90;;;;;;4928704;29;20489;-76
2023/03/29 07:11:45;;;;;;;8.32;3.75;;;10.90;99.90;;;;;;4933464;29;20653;-76
2023/03/29 07:14:11;;;;;;;9.68;3.95;;;11.00;99.90;;;;;;4928072;29;20016;-76
2023/03/29 07:16:36;;;;;;;6.60;4.15;;;11.00;99.90;;;;;;4928807;29;20083;-75
2023/03/29 07:19:03;;;;;;;15.75;5.03;;;11.10;99.90;;;;;;4931044;29;20025;-76
2023/03/29 07:21:29;;;;;;;7.40;4.35;;;11.20;99.90;;;;;;4922025;29;20404;-76
2023/03/29 07:23:57;;;;;;;11.98;4.70;;;11.30;99.90;;;;;;4934753;29;21452;-76
2023/03/29 07:26:23;;;;;;;12.30;4.70;;;11.30;99.90;;;;;;4932598;29;20028;-75
2023/03/29 07:28:49;;;;;;;10.77;4.65;;;11.30;99.90;;;;;;4937116;28;20130;-76
2023/03/29 07:31:16;;;;;;;8.85;4.68;;;11.30;99.90;;;;;;4929922;29;20073;-76
2023/03/29 07:33:42;;;;;;;7.10;3.58;;;11.20;99.90;;;;;;4929587;29;20026;-75
2023/03/29 07:36:09;;;;;;;11.35;4.63;;;11.30;99.90;;;;;;4930116;29;20123;-76
2023/03/29 07:38:35;;;;;;;16.10;4.90;;;11.30;99.90;;;;;;4934411;29;20102;-76
2023/03/29 07:41:05;;;;;;;9.38;4.82;;;11.30;99.90;;;;;;4924272;29;20131;-74
2023/03/29 07:43:31;;;;;;;12.77;4.95;;;11.30;99.90;;;;;;4930517;29;20090;-76
2023/03/29 07:46:02;;;;;;;7.50;4.40;;;11.30;99.90;;;;;;4931971;29;20016;-76
2023/03/29 07:48:28;;;;;;;9.55;4.22;;;11.40;99.90;;;;;;4929330;29;20031;-76
2023/03/29 07:50:54;;;;;;;8.82;4.05;;;11.40;99.90;;;;;;4930395;29;20023;-76
2023/03/29 07:53:21;;;;;;;4.63;4.00;;;11.40;99.90;;;;;;4929522;29;20394;-76
2023/03/29 07:55:48;;;;;;;7.72;4.68;;;11.50;99.90;;;;;;4928360;28;20028;-77
2023/03/29 07:58:14;;;;;;;7.45;5.07;;;11.50;99.90;;;;;;4923604;29;20111;-75
2023/03/29 08:00:40;;;;;;;10.10;4.22;;;11.50;99.90;;;;;;4931081;29;20058;-76
2023/03/29 08:03:08;;;;;;;7.57;4.43;;;11.60;99.90;;;;;;4927749;29;20458;-76
2023/03/29 08:05:33;;;;;;;9.35;4.15;;;11.60;99.90;;;;;;4935634;29;20074;-75
2023/03/29 08:07:59;;;;;;;8.15;4.75;;;11.80;99.90;;;;;;4926494;29;20031;-75
2023/03/29 08:10:26;;;;;;;9.48;4.18;;;11.90;99.90;;;;;;4933830;29;20489;-77
2023/03/29 08:12:52;;;;;;;8.38;3.80;;;11.90;99.90;;;;;;4928303;29;20032;-76
2023/03/29 08:15:18;;;;;;;8.88;4.20;;;11.90;99.90;;;;;;4932457;29;20377;-77
2023/03/29 08:17:44;;;;;;;8.65;3.85;;;12.00;99.90;;;;;;4933754;28;20028;-76
2023/03/29 08:20:15;;;;;;;6.50;4.28;;;12.00;99.90;;;;;;4932491;29;20040;-77
2023/03/29 08:22:41;;;;;;;4.75;3.70;;;12.10;99.90;;;;;;4929871;29;20472;-77
2023/03/29 08:25:07;;;;;;;6.07;3.75;;;12.20;99.90;;;;;;4927338;29;20115;-76
2023/03/29 08:27:34;;;;;;;7.85;3.83;;;12.20;99.90;;;;;;4926367;29;20033;-77
2023/03/29 08:29:59;;;;;;;14.15;4.55;;;12.20;99.90;;;;;;4928545;29;20023;-76
2023/03/29 08:32:25;;;;;;;7.53;4.05;;;12.20;99.90;;;;;;4929785;29;20031;-76
2023/03/29 08:34:51;;;;;;;7.43;4.03;;;12.30;99.90;;;;;;4929871;29;20024;-76
2023/03/29 08:37:17;;;;;;;5.72;3.78;;;12.20;99.90;;;;;;4934541;29;20062;-77
2023/03/29 08:39:42;;;;;;;7.50;3.67;;;12.30;99.90;;;;;;4929923;29;20500;-77
2023/03/29 08:42:23;;;;;;;14.98;4.30;;;12.30;99.90;;;;;;4928327;29;20039;-77
2023/03/29 08:45:20;;;;;;;8.85;4.38;;;12.40;99.90;;;;;;4932426;29;20028;-78
2023/03/29 08:48:03;;;;;;;13.38;5.65;;;12.30;99.90;;;;;;4922923;29;20453;-77
2023/03/29 08:50:36;;;;;;;10.90;5.30;;;12.40;99.90;;;;;;4930579;29;20473;-77
2023/03/29 08:53:14;;;;;;;8.50;5.32;;;12.30;99.90;;;;;;4931521;29;20032;-77
2023/03/29 08:55:46;;;;;;;15.30;5.93;;;12.30;99.90;;;;;;4931668;29;20384;-76
2023/03/29 08:58:19;;;;;;;8.52;5.60;;;12.40;99.90;;;;;;4933330;29;20716;-72
2023/03/29 09:00:53;;;;;;;10.38;5.35;;;12.30;99.90;;;;;;4898370;28;20040;-76
2023/03/29 09:03:23;;;;;;;11.63;5.68;;;12.30;99.90;;;;;;4914642;29;20433;-76
2023/03/29 09:05:55;;;;;;;13.25;5.47;;;12.40;99.90;;;;;;4915046;29;20023;-74
2023/03/29 09:08:23;;;;;;;10.32;5.90;;;12.50;99.90;;;;;;4918166;29;20055;-75
2023/03/29 09:11:22;;;;;;;11.20;5.18;;;12.50;99.90;;;;;;4912181;29;20039;-75
2023/03/29 09:14:14;;;;;;;8.18;5.47;;;12.60;99.90;;;;;;4914349;29;20036;-73
2023/03/29 09:16:47;;;;;;;8.80;4.80;;;12.70;99.90;;;;;;4920463;29;20040;-73
2023/03/29 09:19:32;;;;;;;10.90;4.78;;;12.70;99.90;;;;;;4916079;29;20024;-74
2023/03/29 09:22:07;;;;;;;9.55;5.22;;;12.70;99.90;;;;;;4915800;29;20130;-74
2023/03/29 09:24:42;;;;;;;8.35;3.83;;;12.80;99.90;;;;;;4912797;29;20028;-74
2023/03/29 09:27:14;;;;;;;13.07;5.47;;;12.90;99.90;;;;;;4917890;29;20024;-74
2023/03/29 09:29:46;;;;;;;15.18;5.43;;;13.00;99.90;;;;;;4916495;29;20091;-74
2023/03/29 09:32:21;;;;;;;8.63;4.72;;;13.10;99.90;;;;;;4914859;29;20119;-75
2023/03/29 09:35:17;;;;;;;13.48;4.57;;;13.00;99.90;;;;;;4917634;29;20039;-74
2023/03/29 09:37:43;;;;;;;6.63;3.80;;;12.90;99.90;;;;;;4917772;28;20039;-73
2023/03/29 09:40:33;;;;;;;9.18;4.25;;;12.80;99.90;;;;;;4916812;29;20044;-74
2023/03/29 09:43:01;;;;;;;7.85;4.00;;;12.80;99.90;;;;;;4923695;29;20029;-74
2023/03/29 09:45:26;;;;;;;8.68;4.55;;;12.80;99.90;;;;;;4917992;29;20515;-75
2023/03/29 09:48:07;;;;;;;8.10;4.47;;;12.80;99.90;;;;;;4919208;29;20028;-74
2023/03/29 09:50:45;;;;;;;9.68;4.63;;;12.80;99.90;;;;;;4917775;29;20182;-75
2023/03/29 09:53:13;;;;;;;13.55;5.45;;;12.90;99.90;;;;;;4917898;29;20032;-75
2023/03/29 09:55:39;;;;;;;11.73;5.57;;;12.90;99.90;;;;;;4916964;29;20559;-73
2023/03/29 09:58:17;;;;;;;13.27;5.65;;;12.90;99.90;;;;;;4918513;29;20024;-74
2023/03/29 10:00:44;;;;;;;10.65;4.80;;;12.80;99.90;;;;;;4919384;28;20071;-74
2023/03/29 10:03:22;;;;;;;11.20;4.95;;;12.80;99.90;;;;;;4916063;29;20020;-70
2023/03/29 10:05:53;;;;;;;11.30;5.82;;;12.80;99.90;;;;;;4927265;29;20059;-71
2023/03/29 10:08:29;;;;;;;11.30;5.72;;;12.70;99.90;;;;;;4923109;29;20032;-71
2023/03/29 10:11:00;;;;;;;9.60;5.78;;;12.80;99.90;;;;;;4925799;29;20121;-71
2023/03/29 10:13:35;;;;;;;10.93;6.38;;;12.80;99.90;;;;;;4924980;29;20024;-73
2023/03/29 10:16:06;;;;;;;10.18;6.25;;;12.90;99.90;;;;;;4925649;29;20044;-71
2023/03/29 10:18:37;;;;;;;8.68;7.50;;;12.90;99.90;;;;;;4927065;29;20150;-71
2023/03/29 10:21:04;;;;;;;12.18;5.78;;;12.90;99.90;;;;;;4940517;28;20038;-73
2023/03/29 10:23:32;;;;;;;12.57;5.40;;;13.00;99.90;;;;;;4923493;29;20024;-71
2023/03/29 10:25:58;;;;;;;13.45;6.07;;;13.00;99.90;;;;;;4924668;29;20336;-70
2023/03/29 10:28:26;;;;;;;11.27;6.30;;;13.00;99.90;;;;;;4924071;29;20516;-72
2023/03/29 10:30:57;;;;;;;18.55;6.85;;;13.00;99.90;;;;;;4925039;29;20377;-72
2023/03/29 10:33:26;;;;;;;12.75;6.50;;;13.00;99.90;;;;;;4926578;29;20044;-72
2023/03/29 10:35:56;;;;;;;16.85;7.47;;;13.10;99.90;;;;;;4927176;29;20024;-72
2023/03/29 10:38:26;;;;;;;8.43;5.60;;;13.20;99.90;;;;;;4925583;29;20059;-71
2023/03/29 10:40:54;;;;;;;13.30;6.35;;;13.30;99.90;;;;;;4923205;29;20040;-72
2023/03/29 10:43:33;;;;;;;10.90;6.13;;;13.20;99.90;;;;;;4924324;29;20035;-71
2023/03/29 10:46:18;;;;;;;13.30;5.57;;;13.30;99.90;;;;;;4920850;29;20024;-70
2023/03/29 10:48:56;;;;;;;9.35;5.45;;;13.40;99.90;;;;;;4925598;29;20381;-71
2023/03/29 10:51:23;;;;;;;11.10;5.70;;;13.50;99.90;;;;;;4923748;29;20083;-72
2023/03/29 10:53:49;;;;;;;7.95;5.43;;;13.50;99.90;;;;;;4923145;29;20032;-71
2023/03/29 10:56:29;;;;;;;13.65;5.78;;;13.50;99.90;;;;;;4923542;29;20035;-71
2023/03/29 10:59:13;;;;;;;13.75;5.35;;;13.60;99.90;;;;;;4923650;29;20032;-72
2023/03/29 11:01:48;;;;;;;13.05;5.93;;;13.70;99.90;;;;;;4922908;29;20059;-73
2023/03/29 11:04:44;;;;;;;9.00;5.50;;;13.90;99.90;;;;;;4925030;29;20473;-72
2023/03/29 11:07:27;;;;;;;9.88;5.32;;;14.00;99.90;;;;;;4922938;29;20042;-72
2023/03/29 11:10:25;;;;;;;11.35;5.85;;;14.00;99.90;;;;;;4923301;29;20066;-71
2023/03/29 11:13:16;;;;;;;10.98;5.88;;;14.00;99.90;;;;;;4924040;29;20034;-73
2023/03/29 11:16:09;;;;;;;8.70;5.35;;;14.00;99.90;;;;;;4924158;29;20031;-74
2023/03/29 11:19:13;;;;;;;11.98;6.07;;;14.10;99.90;;;;;;4921402;29;20576;-71
2023/03/29 11:21:50;;;;;;;9.23;4.80;;;14.20;99.90;;;;;;4920059;29;20062;-74
2023/03/29 11:24:46;;;;;;;9.75;4.65;;;14.30;99.90;;;;;;4924876;29;20106;-74
2023/03/29 11:27:26;;;;;;;10.50;4.72;;;14.30;99.90;;;;;;4921370;29;20066;-72
2023/03/29 11:30:16;;;;;;;8.05;4.97;;;14.30;99.90;;;;;;4924834;29;20062;-73
2023/03/29 11:33:24;;;;;;;9.25;4.75;;;14.30;99.90;;;;;;4923581;29;20032;-70
2023/03/29 11:36:06;;;;;;;7.03;4.35;;;14.40;99.90;;;;;;4923626;29;20031;-75
2023/03/29 11:38:39;;;;;;;9.88;5.10;;;14.60;99.90;;;;;;4924157;29;20027;-73
2023/03/29 11:41:20;;;;;;;9.25;4.72;;;14.70;99.90;;;;;;4924209;29;20052;-72
2023/03/29 11:43:51;;;;;;;9.77;4.55;;;15.10;99.90;;;;;;4921499;29;20041;-73
2023/03/29 11:46:40;;;;;;;7.32;4.50;;;15.30;99.90;;;;;;4923409;29;20099;-72
2023/03/29 11:49:15;;;;;;;7.68;4.70;;;15.60;99.90;;;;;;4922803;29;20035;-72
2023/03/29 11:51:41;;;;;;;6.68;4.47;;;15.70;99.90;;;;;;4920814;29;20111;-74
2023/03/29 11:54:12;;;;;;;9.90;4.47;;;15.80;99.90;;;;;;4923113;29;20099;-73
2023/03/29 11:56:43;;;;;;;7.28;4.28;;;15.90;99.90;;;;;;4922714;28;20027;-71
2023/03/29 11:59:17;;;;;;;8.63;3.53;;;15.90;99.90;;;;;;4921529;29;20032;-75
2023/03/29 12:01:55;;;;;;;8.18;3.85;;;16.10;99.90;;;;;;4921231;29;20507;-75
2023/03/29 12:04:30;;;;;;;9.80;4.28;;;16.10;99.90;;;;;;4924176;29;20048;-71
2023/03/29 12:07:06;;;;;;;6.32;4.40;;;16.10;99.90;;;;;;4922738;29;20126;-73
2023/03/29 12:09:57;;;;;;;7.47;3.83;;;16.10;99.90;;;;;;4922816;29;20043;-73
2023/03/29 12:12:54;;;;;;;6.75;3.13;;;16.10;99.90;;;;;;4922179;29;20034;-69
2023/03/29 12:15:23;;;;;;;8.05;3.70;;;16.10;99.90;;;;;;4917511;29;20126;-73
2023/03/29 12:18:26;;;;;;;4.43;2.80;;;16.10;99.90;;;;;;4923687;29;20024;-74
2023/03/29 12:21:01;;;;;;;4.13;3.00;;;16.20;99.90;;;;;;4922334;29;20039;-72
2023/03/29 12:23:31;;;;;;;6.10;2.70;;;16.20;99.90;;;;;;4923053;29;20047;-73
2023/03/29 12:26:27;;;;;;;7.05;3.20;;;16.10;99.90;;;;;;4923257;29;20024;-73
2023/03/29 12:29:17;;;;;;;4.93;2.70;;;16.10;99.90;;;;;;4922232;29;20851;-72
2023/03/29 12:32:01;;;;;;;8.05;3.50;;;16.20;99.90;;;;;;4922026;29;20087;-72
2023/03/29 12:34:47;;;;;;;4.43;3.22;;;16.10;99.90;;;;;;4924313;29;20139;-73
2023/03/29 12:37:31;;;;;;;6.88;3.08;;;16.10;99.90;;;;;;4917577;29;20111;-73
2023/03/29 12:40:18;;;;;;;9.60;3.67;;;16.10;99.90;;;;;;4921398;29;20031;-73
2023/03/29 12:43:02;;;;;;;5.63;3.55;;;16.20;99.90;;;;;;4922422;28;20046;-73
2023/03/29 12:45:41;;;;;;;5.40;3.50;;;16.30;99.90;;;;;;4923182;29;20027;-73
2023/03/29 12:48:15;;;;;;;6.90;3.20;;;16.40;99.90;;;;;;4923625;29;20036;-73
2023/03/29 12:51:02;;;;;;;7.25;3.45;;;16.40;99.90;;;;;;4922157;29;20024;-73
2023/03/29 12:53:34;;;;;;;7.25;4.00;;;16.60;99.90;;;;;;4921860;29;20107;-73
2023/03/29 12:56:07;;;;;;;;;;;16.80;99.90;;;;;;4924881;29;20036;-72
2023/03/29 12:58:42;;;;;;;5.75;3.92;;;16.90;99.90;;;;;;4924809;29;19910;-73
2023/03/29 13:01:29;;;;;;;8.02;3.75;;;17.00;99.90;;;;;;4924574;29;20118;-72
2023/03/29 13:04:18;;;;;;;9.50;3.97;;;17.00;99.90;;;;;;4925764;29;20934;-73
2023/03/29 13:07:03;;;;;;;4.93;3.92;;;17.00;99.90;;;;;;4927986;29;20031;-72
2023/03/29 13:09:47;;;;;;;7.90;4.00;;;16.90;99.90;;;;;;4926056;29;20039;-73
2023/03/29 13:12:19;;;;;;;7.68;4.03;;;16.80;99.90;;;;;;4926873;29;20038;-73